createdAt,value
2023-02-19T00:01:16.439Z,9.60
2023-02-19T00:03:47.866Z,9.58
2023-02-19T00:06:14.323Z,9.58
2023-02-19T00:08:40.694Z,9.59
2023-02-19T00:11:13.636Z,9.59
2023-02-19T00:13:42.801Z,9.59
2023-02-19T00:16:21.369Z,9.58
2023-02-19T00:18:47.809Z,9.59
2023-02-19T00:21:15.065Z,9.57
2023-02-19T00:23:41.919Z,9.57
2023-02-19T00:26:18.549Z,9.58
2023-02-19T00:28:46.332Z,9.57
2023-02-19T00:31:22.198Z,9.57
2023-02-19T00:33:50.813Z,9.56
2023-02-19T00:36:17.494Z,9.56
2023-02-19T00:38:44.978Z,9.56
2023-02-19T00:41:19.731Z,9.55
2023-02-19T00:43:45.987Z,9.55
2023-02-19T00:46:12.444Z,9.56
2023-02-19T00:48:38.984Z,9.53
2023-02-19T00:51:05.558Z,9.52
2023-02-19T00:53:31.898Z,9.54
2023-02-19T00:55:58.237Z,9.55
2023-02-19T00:58:24.645Z,9.55
2023-02-19T01:00:51.079Z,9.56
2023-02-19T01:03:17.523Z,9.53
2023-02-19T01:05:43.950Z,9.53
2023-02-19T01:08:10.370Z,9.53
2023-02-19T01:10:36.727Z,9.53
2023-02-19T01:13:03.105Z,9.52
2023-02-19T01:15:29.437Z,9.52
2023-02-19T01:17:55.849Z,9.51
2023-02-19T01:20:22.181Z,9.51
2023-02-19T01:22:48.542Z,9.50
2023-02-19T01:25:15.246Z,9.49
2023-02-19T01:27:41.604Z,9.49
2023-02-19T01:30:08.707Z,9.48
2023-02-19T01:32:35.089Z,9.46
2023-02-19T01:35:01.502Z,9.46
2023-02-19T01:37:27.861Z,9.46
2023-02-19T01:39:54.221Z,9.45
2023-02-19T01:42:20.603Z,9.46
2023-02-19T01:44:46.949Z,9.46
2023-02-19T01:47:16.080Z,9.44
2023-02-19T01:49:54.599Z,9.43
2023-02-19T01:52:25.630Z,9.41
2023-02-19T01:54:53.440Z,9.40
2023-02-19T01:57:25.322Z,9.36
2023-02-19T01:59:57.582Z,9.38
2023-02-19T02:02:28.426Z,9.39
2023-02-19T02:04:57.542Z,9.35
2023-02-19T02:07:42.327Z,9.36
2023-02-19T02:10:21.022Z,9.34
2023-02-19T02:12:52.510Z,9.32
2023-02-19T02:15:19.630Z,9.32
2023-02-19T02:17:45.902Z,9.32
2023-02-19T02:20:15.346Z,9.31
2023-02-19T02:22:51.260Z,9.31
2023-02-19T02:25:32.014Z,9.28
2023-02-19T02:28:07.085Z,9.28
2023-02-19T02:30:41.513Z,9.26
2023-02-19T02:33:24.483Z,9.26
2023-02-19T02:36:02.093Z,9.25
2023-02-19T02:38:31.751Z,9.24
2023-02-19T02:40:58.914Z,9.22
2023-02-19T02:43:25.408Z,9.20
2023-02-19T02:45:51.922Z,9.21
2023-02-19T02:48:39.267Z,9.21
2023-02-19T02:51:13.005Z,9.21
2023-02-19T02:54:04.162Z,9.20
2023-02-19T02:56:31.408Z,9.20
2023-02-19T02:59:00.819Z,9.19
2023-02-19T03:02:00.102Z,9.18
2023-02-19T03:04:33.157Z,9.19
2023-02-19T03:07:05.612Z,9.20
2023-02-19T03:09:40.500Z,9.19
2023-02-19T03:12:32.182Z,9.18
2023-02-19T03:15:23.001Z,9.18
2023-02-19T03:18:11.448Z,9.18
2023-02-19T03:20:42.199Z,9.18
2023-02-19T03:23:10.971Z,9.18
2023-02-19T03:25:57.845Z,9.18
2023-02-19T03:28:49.312Z,9.20
2023-02-19T03:31:20.180Z,9.16
2023-02-19T03:33:54.136Z,9.15
2023-02-19T03:36:25.785Z,9.13
2023-02-19T03:38:59.273Z,9.13
2023-02-19T03:41:40.914Z,9.13
2023-02-19T03:44:17.948Z,9.14
2023-02-19T03:47:18.201Z,9.13
2023-02-19T03:49:50.694Z,9.12
2023-02-19T03:52:53.223Z,9.11
2023-02-19T03:55:44.906Z,9.12
2023-02-19T03:58:22.340Z,9.10
2023-02-19T04:01:15.496Z,9.09
2023-02-19T04:03:49.949Z,9.07
2023-02-19T04:06:27.300Z,9.10
2023-02-19T04:08:57.345Z,9.08
2023-02-19T04:11:26.232Z,9.06
2023-02-19T04:14:05.362Z,9.05
2023-02-19T04:16:36.162Z,9.07
2023-02-19T04:19:08.602Z,9.03
2023-02-19T04:21:37.644Z,9.03
2023-02-19T04:24:10.945Z,9.02
2023-02-19T04:26:37.663Z,9.01
2023-02-19T04:29:04.320Z,9.01
2023-02-19T04:31:31.858Z,9.03
2023-02-19T04:33:58.308Z,9.01
2023-02-19T04:36:24.652Z,9.02
2023-02-19T04:38:50.978Z,9.01
2023-02-19T04:41:17.308Z,9.03
2023-02-19T04:43:43.702Z,9.02
2023-02-19T04:46:10.178Z,9.03
2023-02-19T04:48:36.598Z,9.03
2023-02-19T04:51:07.182Z,9.03
2023-02-19T04:53:33.956Z,9.01
2023-02-19T04:56:12.430Z,9.02
2023-02-19T04:58:39.921Z,9.03
2023-02-19T05:01:06.692Z,9.03
2023-02-19T05:03:35.226Z,9.03
2023-02-19T05:06:07.182Z,9.02
2023-02-19T05:08:34.081Z,9.01
2023-02-19T05:11:02.363Z,9.02
2023-02-19T05:13:29.092Z,9.00
2023-02-19T05:16:07.184Z,9.00
2023-02-19T05:18:34.645Z,8.99
2023-02-19T05:21:01.759Z,8.99
2023-02-19T05:23:28.813Z,8.99
2023-02-19T05:25:55.529Z,8.98
2023-02-19T05:28:28.446Z,9.00
2023-02-19T05:30:56.850Z,9.01
2023-02-19T05:33:25.652Z,9.01
2023-02-19T05:35:55.243Z,8.98
2023-02-19T05:38:22.210Z,8.99
2023-02-19T05:40:48.750Z,8.99
2023-02-19T05:43:16.180Z,8.96
2023-02-19T05:45:43.526Z,8.96
2023-02-19T05:48:10.961Z,8.94
2023-02-19T05:50:39.678Z,8.95
2023-02-19T05:53:06.251Z,8.96
2023-02-19T05:55:36.628Z,8.95
2023-02-19T05:58:03.405Z,8.97
2023-02-19T06:00:30.322Z,8.95
2023-02-19T06:02:56.739Z,8.95
2023-02-19T06:05:23.205Z,8.93
2023-02-19T06:07:50.466Z,8.93
2023-02-19T06:10:17.410Z,8.91
2023-02-19T06:12:44.329Z,8.92
2023-02-19T06:15:10.732Z,8.88
2023-02-19T06:17:37.186Z,8.86
2023-02-19T06:20:03.825Z,8.87
2023-02-19T06:22:30.270Z,8.86
2023-02-19T06:24:56.648Z,8.86
2023-02-19T06:27:23.073Z,8.86
2023-02-19T06:29:49.469Z,8.89
2023-02-19T06:32:16.801Z,8.84
2023-02-19T06:34:43.248Z,8.82
2023-02-19T06:37:09.646Z,8.82
2023-02-19T06:39:36.484Z,8.82
2023-02-19T06:42:02.918Z,8.82
2023-02-19T06:44:29.334Z,8.81
2023-02-19T06:46:55.940Z,8.82
2023-02-19T06:49:22.759Z,8.84
2023-02-19T06:51:49.237Z,8.82
2023-02-19T06:54:15.618Z,8.81
2023-02-19T06:56:42.209Z,8.79
2023-02-19T06:59:12.980Z,8.77
2023-02-19T07:01:40.304Z,8.73
2023-02-19T07:04:07.590Z,8.72
2023-02-19T07:06:35.358Z,8.73
2023-02-19T07:09:02.958Z,8.68
2023-02-19T07:11:31.672Z,8.68
2023-02-19T07:13:59.679Z,8.68
2023-02-19T07:16:27.323Z,8.66
2023-02-19T07:18:56.912Z,8.72
2023-02-19T07:21:23.399Z,8.68
2023-02-19T07:23:49.834Z,8.71
2023-02-19T07:26:18.360Z,8.73
2023-02-19T07:28:47.104Z,8.73
2023-02-19T07:31:18.694Z,8.73
2023-02-19T07:33:46.486Z,8.73
2023-02-19T07:36:14.873Z,8.73
2023-02-19T07:38:41.178Z,8.74
2023-02-19T07:41:08.399Z,8.74
2023-02-19T07:43:36.735Z,8.76
2023-02-19T07:46:04.874Z,8.77
2023-02-19T07:48:31.355Z,8.75
2023-02-19T07:50:59.982Z,8.74
2023-02-19T07:53:28.384Z,8.76
2023-02-19T07:55:59.470Z,8.77
2023-02-19T07:58:25.867Z,8.77
2023-02-19T08:00:52.328Z,8.77
2023-02-19T08:03:18.838Z,8.77
2023-02-19T08:05:45.358Z,8.78
2023-02-19T08:08:14.229Z,8.79
2023-02-19T08:10:59.793Z,8.81
2023-02-19T08:13:30.064Z,8.82
2023-02-19T08:16:18.352Z,8.80
2023-02-19T08:18:48.713Z,8.79
2023-02-19T08:21:18.262Z,8.81
2023-02-19T08:23:46.208Z,8.78
2023-02-19T08:26:12.809Z,8.77
2023-02-19T08:28:39.379Z,8.73
2023-02-19T08:31:07.518Z,8.75
2023-02-19T08:33:34.643Z,8.72
2023-02-19T08:36:05.941Z,8.70
2023-02-19T08:38:35.705Z,8.70
2023-02-19T08:41:07.228Z,8.68
2023-02-19T08:43:34.094Z,8.70
2023-02-19T08:46:00.586Z,8.72
2023-02-19T08:48:27.642Z,8.73
2023-02-19T08:50:59.032Z,8.75
2023-02-19T08:53:26.339Z,8.78
2023-02-19T08:55:53.009Z,8.79
2023-02-19T08:58:19.424Z,8.79
2023-02-19T09:00:45.810Z,8.78
2023-02-19T09:03:12.205Z,8.77
2023-02-19T09:05:39.218Z,8.79
2023-02-19T09:08:05.905Z,8.77
2023-02-19T09:10:32.227Z,8.79
2023-02-19T09:12:58.560Z,8.81
2023-02-19T09:15:24.954Z,8.82
2023-02-19T09:17:54.341Z,8.83
2023-02-19T09:20:20.912Z,8.85
2023-02-19T09:22:47.350Z,8.87
2023-02-19T09:25:13.776Z,8.87
2023-02-19T09:27:40.240Z,8.92
2023-02-19T09:30:07.270Z,8.95
2023-02-19T09:32:33.688Z,8.93
2023-02-19T09:35:00.118Z,8.92
2023-02-19T09:37:27.819Z,8.91
2023-02-19T09:39:55.232Z,8.91
2023-02-19T09:42:29.796Z,8.88
2023-02-19T09:44:58.468Z,8.92
2023-02-19T09:47:27.749Z,8.95
2023-02-19T09:49:57.389Z,8.90
2023-02-19T09:52:44.159Z,8.85
2023-02-19T09:55:34.693Z,8.80
2023-02-19T09:58:08.849Z,8.79
2023-02-19T10:00:36.466Z,8.80
2023-02-19T10:03:11.043Z,8.75
2023-02-19T10:05:39.819Z,8.70
2023-02-19T10:08:13.205Z,8.69
2023-02-19T10:10:41.150Z,8.71
2023-02-19T10:13:22.800Z,8.65
2023-02-19T10:15:56.872Z,8.63
2023-02-19T10:18:28.912Z,8.58
2023-02-19T10:20:57.164Z,8.57
2023-02-19T10:23:24.885Z,8.55
2023-02-19T10:25:59.154Z,8.50
2023-02-19T10:28:31.225Z,8.53
2023-02-19T10:30:59.600Z,8.52
2023-02-19T10:33:26.519Z,8.51
2023-02-19T10:35:58.950Z,8.51
2023-02-19T10:38:32.449Z,8.46
2023-02-19T10:41:14.984Z,8.52
2023-02-19T10:43:50.417Z,8.46
2023-02-19T10:46:29.734Z,8.46
2023-02-19T10:49:00.306Z,8.47
2023-02-19T10:51:36.492Z,8.46
2023-02-19T10:54:26.654Z,8.41
2023-02-19T10:56:54.068Z,8.42
2023-02-19T10:59:28.768Z,8.47
2023-02-19T11:01:57.281Z,8.52
2023-02-19T11:04:24.896Z,8.46
2023-02-19T11:06:51.509Z,8.46
2023-02-19T11:09:28.182Z,8.52
2023-02-19T11:11:55.991Z,8.54
2023-02-19T11:14:24.574Z,8.45
2023-02-19T11:16:56.021Z,8.51
2023-02-19T11:19:30.905Z,8.50
2023-02-19T11:21:58.885Z,8.38
2023-02-19T11:24:27.134Z,8.36
2023-02-19T11:26:53.964Z,8.34
2023-02-19T11:29:23.157Z,8.40
2023-02-19T11:31:49.666Z,8.44
2023-02-19T11:34:21.330Z,8.39
2023-02-19T11:37:07.900Z,8.41
2023-02-19T11:39:34.644Z,8.32
2023-02-19T11:42:33.568Z,8.26
2023-02-19T11:45:09.093Z,8.33
2023-02-19T11:48:02.977Z,8.27
2023-02-19T11:50:48.320Z,8.20
2023-02-19T11:53:24.840Z,8.15
2023-02-19T11:56:27.925Z,8.16
2023-02-19T11:59:05.729Z,8.19
2023-02-19T12:01:44.092Z,8.23
2023-02-19T12:04:47.841Z,8.12
2023-02-19T12:07:34.281Z,8.01
2023-02-19T12:10:28.361Z,7.97
2023-02-19T12:13:12.867Z,7.99
2023-02-19T12:16:02.846Z,7.93
2023-02-19T12:18:29.244Z,8.00
2023-02-19T12:21:17.296Z,8.03
2023-02-19T12:23:49.705Z,7.99
2023-02-19T12:26:29.057Z,7.98
2023-02-19T12:29:10.795Z,7.96
2023-02-19T12:31:43.179Z,7.88
2023-02-19T12:34:28.968Z,7.86
2023-02-19T12:37:14.141Z,7.83
2023-02-19T12:40:21.543Z,7.78
2023-02-19T12:43:09.445Z,7.79
2023-02-19T12:45:47.025Z,7.80
2023-02-19T12:48:13.363Z,7.86
2023-02-19T12:50:40.778Z,7.84
2023-02-19T12:53:32.663Z,7.85
2023-02-19T12:56:01.163Z,7.81
2023-02-19T12:58:39.074Z,7.81
2023-02-19T13:01:07.920Z,7.80
2023-02-19T13:04:11.112Z,7.78
2023-02-19T13:06:45.128Z,7.77
2023-02-19T13:09:15.253Z,7.70
2023-02-19T13:11:50.492Z,7.68
2023-02-19T13:14:41.513Z,7.68
2023-02-19T13:17:21.248Z,7.75
2023-02-19T13:19:51.903Z,7.75
2023-02-19T13:22:52.821Z,7.69
2023-02-19T13:25:21.048Z,7.62
2023-02-19T13:28:11.593Z,7.62
2023-02-19T13:31:07.886Z,7.54
2023-02-19T13:33:45.935Z,7.61
2023-02-19T13:36:16.361Z,7.63
2023-02-19T13:38:48.512Z,7.65
2023-02-19T13:41:33.634Z,7.69
2023-02-19T13:44:05.936Z,7.70
2023-02-19T13:46:40.456Z,7.65
2023-02-19T13:49:41.069Z,7.62
2023-02-19T13:52:28.708Z,7.63
2023-02-19T13:55:32.492Z,7.67
2023-02-19T13:58:33.068Z,7.74
2023-02-19T14:01:07.983Z,7.66
2023-02-19T14:03:37.090Z,7.73
2023-02-19T14:06:06.743Z,7.78
2023-02-19T14:08:56.823Z,7.76
2023-02-19T14:11:41.310Z,7.83
2023-02-19T14:14:25.075Z,7.77
2023-02-19T14:17:17.556Z,7.76
2023-02-19T14:19:50.082Z,7.87
2023-02-19T14:22:47.793Z,7.94
2023-02-19T14:25:33.171Z,7.88
2023-02-19T14:28:17.935Z,7.81
2023-02-19T14:30:47.361Z,7.84
2023-02-19T14:33:17.286Z,7.82
2023-02-19T14:35:46.770Z,7.81
2023-02-19T14:38:21.355Z,7.83
2023-02-19T14:40:50.095Z,7.89
2023-02-19T14:43:19.740Z,7.86
2023-02-19T14:45:54.948Z,7.86
2023-02-19T14:48:49.142Z,7.86
2023-02-19T14:51:27.204Z,7.84
2023-02-19T14:53:55.318Z,7.85
2023-02-19T14:56:33.924Z,7.92
2023-02-19T14:59:17.604Z,7.98
2023-02-19T15:01:44.061Z,7.94
2023-02-19T15:04:22.763Z,7.91
2023-02-19T15:06:49.731Z,7.86
2023-02-19T15:09:16.577Z,7.86
2023-02-19T15:11:43.628Z,7.91
2023-02-19T15:14:20.604Z,7.92
2023-02-19T15:16:47.711Z,7.95
2023-02-19T15:19:17.089Z,7.95
2023-02-19T15:21:47.798Z,7.88
2023-02-19T15:24:16.885Z,7.87
2023-02-19T15:26:48.445Z,7.84
2023-02-19T15:29:17.751Z,7.79
2023-02-19T15:31:46.288Z,7.75
2023-02-19T15:34:21.525Z,7.74
2023-02-19T15:36:51.550Z,7.72
2023-02-19T15:39:24.177Z,7.78
2023-02-19T15:41:59.928Z,7.77
2023-02-19T15:44:47.140Z,7.72
2023-02-19T15:47:33.856Z,7.69
2023-02-19T15:50:26.170Z,7.64
2023-02-19T15:53:04.673Z,7.65
2023-02-19T15:55:40.711Z,7.62
2023-02-19T15:58:23.413Z,7.66
2023-02-19T16:00:57.219Z,7.70
2023-02-19T16:03:26.010Z,7.70
2023-02-19T16:05:59.271Z,7.76
2023-02-19T16:08:30.937Z,7.74
2023-02-19T16:11:00.291Z,7.71
2023-02-19T16:13:29.422Z,7.74
2023-02-19T16:16:04.000Z,7.77
2023-02-19T16:18:31.005Z,7.71
2023-02-19T16:20:57.650Z,7.68
2023-02-19T16:23:25.308Z,7.67
2023-02-19T16:26:00.244Z,7.65
2023-02-19T16:28:29.683Z,7.66
2023-02-19T16:30:59.992Z,7.58
2023-02-19T16:33:38.160Z,7.57
2023-02-19T16:36:34.256Z,7.58
2023-02-19T16:39:09.692Z,7.58
2023-02-19T16:41:45.089Z,7.55
2023-02-19T16:44:20.445Z,7.56
2023-02-19T16:46:51.229Z,7.55
2023-02-19T16:49:18.230Z,7.52
2023-02-19T16:51:46.068Z,7.49
2023-02-19T16:54:12.785Z,7.48
2023-02-19T16:56:39.500Z,7.46
2023-02-19T16:59:07.493Z,7.46
2023-02-19T17:01:35.098Z,7.45
2023-02-19T17:04:05.744Z,7.45
2023-02-19T17:06:37.655Z,7.45
2023-02-19T17:09:06.373Z,7.48
2023-02-19T17:11:32.776Z,7.47
2023-02-19T17:13:59.247Z,7.47
2023-02-19T17:16:29.126Z,7.47
2023-02-19T17:18:55.762Z,7.41
2023-02-19T17:21:25.091Z,7.43
2023-02-19T17:23:52.102Z,7.39
2023-02-19T17:26:30.242Z,7.42
2023-02-19T17:28:57.738Z,7.45
2023-02-19T17:31:24.177Z,7.40
2023-02-19T17:33:51.744Z,7.40
2023-02-19T17:36:22.602Z,7.39
2023-02-19T17:38:49.109Z,7.41
2023-02-19T17:41:15.466Z,7.43
2023-02-19T17:43:41.833Z,7.43
2023-02-19T17:46:17.304Z,7.44
2023-02-19T17:48:44.089Z,7.40
2023-02-19T17:51:11.204Z,7.39
2023-02-19T17:53:37.901Z,7.39
2023-02-19T17:56:04.684Z,7.40
2023-02-19T17:58:31.119Z,7.39
2023-02-19T18:00:57.613Z,7.38
2023-02-19T18:03:24.092Z,7.39
2023-02-19T18:05:50.478Z,7.39
2023-02-19T18:08:16.849Z,7.39
2023-02-19T18:10:43.337Z,7.38
2023-02-19T18:13:10.444Z,7.38
2023-02-19T18:15:36.839Z,7.41
2023-02-19T18:18:04.997Z,7.42
2023-02-19T18:20:31.844Z,7.42
2023-02-19T18:22:58.279Z,7.41
2023-02-19T18:25:25.020Z,7.44
2023-02-19T18:27:51.451Z,7.43
2023-02-19T18:30:19.664Z,7.39
2023-02-19T18:32:49.759Z,7.31
2023-02-19T18:35:17.997Z,7.27
2023-02-19T18:37:44.690Z,7.25
2023-02-19T18:40:11.654Z,7.25
2023-02-19T18:42:38.978Z,7.25
2023-02-19T18:45:05.629Z,7.29
2023-02-19T18:47:32.078Z,7.25
2023-02-19T18:49:59.466Z,7.27
2023-02-19T18:52:27.013Z,7.22
2023-02-19T18:54:57.181Z,7.23
2023-02-19T18:57:24.925Z,7.28
2023-02-19T18:59:51.577Z,7.28
2023-02-19T19:02:18.931Z,7.24
2023-02-19T19:04:52.781Z,7.24
2023-02-19T19:07:20.351Z,7.18
2023-02-19T19:09:47.499Z,7.17
2023-02-19T19:12:14.567Z,7.14
2023-02-19T19:14:40.991Z,7.13
2023-02-19T19:17:07.442Z,7.13
2023-02-19T19:19:33.805Z,7.11
2023-02-19T19:22:00.185Z,7.08
2023-02-19T19:24:26.617Z,7.06
2023-02-19T19:26:53.993Z,7.05
2023-02-19T19:29:22.019Z,7.04
2023-02-19T19:31:49.532Z,7.02
2023-02-19T19:34:16.409Z,6.98
2023-02-19T19:36:43.210Z,7.01
2023-02-19T19:39:09.563Z,7.03
2023-02-19T19:41:36.452Z,6.99
2023-02-19T19:44:04.917Z,7.00
2023-02-19T19:46:32.030Z,6.99
2023-02-19T19:48:58.841Z,6.96
2023-02-19T19:51:33.852Z,6.93
2023-02-19T19:54:01.010Z,6.91
2023-02-19T19:56:27.339Z,6.88
2023-02-19T19:58:53.678Z,6.90
2023-02-19T20:01:21.282Z,6.92
2023-02-19T20:03:48.278Z,6.92
2023-02-19T20:06:14.660Z,6.95
2023-02-19T20:08:41.203Z,6.93
2023-02-19T20:11:07.621Z,6.91
2023-02-19T20:13:34.480Z,6.84
2023-02-19T20:16:00.973Z,6.86
2023-02-19T20:18:27.491Z,6.89
2023-02-19T20:20:53.868Z,6.83
2023-02-19T20:23:20.293Z,6.81
2023-02-19T20:25:46.655Z,6.80
2023-02-19T20:28:13.081Z,6.76
2023-02-19T20:30:39.492Z,6.76
2023-02-19T20:33:05.836Z,6.74
2023-02-19T20:35:32.393Z,6.72
2023-02-19T20:37:58.891Z,6.73
2023-02-19T20:40:27.719Z,6.76
2023-02-19T20:42:54.351Z,6.77
2023-02-19T20:45:21.346Z,6.77
2023-02-19T20:47:47.966Z,6.78
2023-02-19T20:50:17.085Z,6.73
2023-02-19T20:52:43.640Z,6.70
2023-02-19T20:55:10.128Z,6.66
2023-02-19T20:57:37.313Z,6.62
2023-02-19T21:00:05.147Z,6.61
2023-02-19T21:02:31.736Z,6.65
2023-02-19T21:04:58.634Z,6.70
2023-02-19T21:07:25.920Z,6.72
2023-02-19T21:09:52.622Z,6.68
2023-02-19T21:12:20.691Z,6.70
2023-02-19T21:14:47.301Z,6.68
2023-02-19T21:17:13.798Z,6.67
2023-02-19T21:19:40.514Z,6.64
2023-02-19T21:22:07.079Z,6.61
2023-02-19T21:24:33.522Z,6.60
2023-02-19T21:27:00.169Z,6.57
2023-02-19T21:29:27.008Z,6.60
2023-02-19T21:31:55.626Z,6.60
2023-02-19T21:34:25.665Z,6.55
2023-02-19T21:36:52.871Z,6.53
2023-02-19T21:39:21.942Z,6.52
2023-02-19T21:41:48.655Z,6.50
2023-02-19T21:44:15.468Z,6.52
2023-02-19T21:46:41.997Z,6.49
2023-02-19T21:49:12.879Z,6.46
2023-02-19T21:51:41.213Z,6.43
2023-02-19T21:54:08.985Z,6.40
2023-02-19T21:56:36.481Z,6.33
2023-02-19T21:59:03.549Z,6.33
2023-02-19T22:01:38.398Z,6.33
2023-02-19T22:04:10.204Z,6.31
2023-02-19T22:06:39.053Z,6.34
2023-02-19T22:09:06.997Z,6.36
2023-02-19T22:11:33.399Z,6.32
2023-02-19T22:13:59.928Z,6.32
2023-02-19T22:16:26.519Z,6.34
2023-02-19T22:18:56.142Z,6.30
2023-02-19T22:21:24.100Z,6.32
2023-02-19T22:23:52.437Z,6.33
2023-02-19T22:26:19.042Z,6.33
2023-02-19T22:28:47.595Z,6.35
2023-02-19T22:31:19.010Z,6.32
2023-02-19T22:33:45.807Z,6.32
2023-02-19T22:36:18.996Z,6.34
2023-02-19T22:38:45.737Z,6.37
2023-02-19T22:41:12.244Z,6.32
2023-02-19T22:43:38.812Z,6.32
2023-02-19T22:46:10.177Z,6.33
2023-02-19T22:48:36.633Z,6.36
2023-02-19T22:51:03.093Z,6.37
2023-02-19T22:53:29.477Z,6.34
2023-02-19T22:55:55.880Z,6.36
2023-02-19T22:58:22.332Z,6.37
2023-02-19T23:00:48.708Z,6.38
2023-02-19T23:03:15.072Z,6.42
2023-02-19T23:05:41.429Z,6.42
2023-02-19T23:08:07.906Z,6.41
2023-02-19T23:10:34.325Z,6.45
2023-02-19T23:13:00.864Z,6.44
2023-02-19T23:15:27.237Z,6.44
2023-02-19T23:17:53.589Z,6.43
2023-02-19T23:20:19.973Z,6.40
2023-02-19T23:22:46.370Z,6.42
2023-02-19T23:25:12.963Z,6.43
2023-02-19T23:27:39.346Z,6.39
2023-02-19T23:30:06.719Z,6.40
2023-02-19T23:32:33.288Z,6.43
2023-02-19T23:34:59.671Z,6.42
2023-02-19T23:37:26.013Z,6.46
2023-02-19T23:39:52.372Z,6.44
2023-02-19T23:42:18.778Z,6.39
2023-02-19T23:44:48.548Z,6.38
2023-02-19T23:47:15.122Z,6.40
2023-02-19T23:49:42.026Z,6.40
2023-02-19T23:52:08.436Z,6.39
2023-02-19T23:54:35.064Z,6.40
2023-02-19T23:57:01.536Z,6.40
2023-02-19T23:59:28.000Z,6.40
